Time;durP1;ratioP1;P1;durP2;ratioP2;P2;SDS_P1;SDS_P2;PMS_P1;PMS_P2;Temp;Humidity;BMP_temperature;BMP_pressure;BME280_temperature;BME280_humidity;BME280_pressure;Samples;Min_cycle;Max_cycle;Signal;HPM_P1;HPM_P2
2022/02/27 00:00:19;;;;;;;119.63;53.95;;;;;;;-2.50;100.00;100677.56;2082692;28;20204;-72
2022/02/27 00:01:22;;;;;;;98.07;51.92;;;;;;;-2.53;100.00;100677.09;2082861;28;20188;-71
2022/02/27 00:02:28;;;;;;;105.82;54.60;;;;;;;-2.51;100.00;100683.78;2082739;28;20203;-73
2022/02/27 00:03:33;;;;;;;111.22;52.88;;;;;;;-2.57;100.00;100672.22;2082672;28;20342;-71
2022/02/27 00:04:38;;;;;;;102.25;52.67;;;;;;;-2.56;100.00;100676.44;2083003;28;20669;-71
2022/02/27 00:05:45;;;;;;;102.30;53.50;;;;;;;-2.56;100.00;100676.44;2083387;28;20202;-72
2022/02/27 00:06:48;;;;;;;106.45;53.40;;;;;;;-2.58;100.00;100683.66;2083144;28;20529;-72
2022/02/27 00:07:51;;;;;;;105.50;52.80;;;;;;;-2.58;100.00;100673.19;2083036;28;20196;-72
2022/02/27 00:08:58;;;;;;;103.85;53.22;;;;;;;-2.61;100.00;100673.56;2082831;28;20586;-71
2022/02/27 00:10:01;;;;;;;103.65;55.75;;;;;;;-2.60;100.00;100674.38;2083355;28;20279;-72
2022/02/27 00:11:06;;;;;;;118.53;57.40;;;;;;;-2.62;100.00;100673.69;2083384;28;20192;-72
2022/02/27 00:12:12;;;;;;;110.53;55.35;;;;;;;-2.62;100.00;100676.31;2083432;28;20192;-72
2022/02/27 00:13:20;;;;;;;110.85;54.95;;;;;;;-2.62;100.00;100674.50;2083366;28;20607;-72
2022/02/27 00:14:21;;;;;;;117.82;57.78;;;;;;;-2.62;100.00;100673.69;2075449;28;20211;-72
2022/02/27 00:15:23;;;;;;;120.17;58.07;;;;;;;-2.62;100.00;100673.69;2082756;28;20191;-72
2022/02/27 00:16:27;;;;;;;128.30;58.97;;;;;;;-2.62;100.00;100677.13;2083383;28;20191;-72
2022/02/27 00:17:36;;;;;;;121.57;59.75;;;;;;;-2.62;100.00;100674.50;2083356;28;20194;-72
2022/02/27 00:18:40;;;;;;;115.80;56.63;;;;;;;-2.57;100.00;100684.47;2083613;28;20183;-72
2022/02/27 00:19:46;;;;;;;134.63;62.58;;;;;;;-2.57;100.00;100685.28;2083287;28;20195;-72
2022/02/27 00:20:52;;;;;;;122.90;59.47;;;;;;;-2.56;100.00;100686.91;2090842;28;20206;-72
2022/02/27 00:21:53;;;;;;;128.32;61.75;;;;;;;-2.54;100.00;100686.72;2082289;28;20306;-72
2022/02/27 00:22:56;;;;;;;135.13;61.08;;;;;;;-2.52;100.00;100687.34;2082701;28;20235;-72
2022/02/27 00:24:00;;;;;;;113.68;60.83;;;;;;;-2.50;100.00;100695.88;2082624;28;20204;-72
2022/02/27 00:25:06;;;;;;;118.28;55.45;;;;;;;-2.48;100.00;100690.47;2075082;28;20206;-72
2022/02/27 00:26:14;;;;;;;112.55;56.13;;;;;;;-2.48;100.00;100696.50;2082359;28;20191;-72
2022/02/27 00:27:19;;;;;;;133.18;56.05;;;;;;;-2.49;100.00;100694.06;2090680;28;20227;-72
2022/02/27 00:28:23;;;;;;;107.38;55.53;;;;;;;-2.46;100.00;100694.53;2090205;28;20191;-72
2022/02/27 00:29:26;;;;;;;111.35;54.95;;;;;;;-2.48;100.00;100682.63;2083284;28;20270;-72
2022/02/27 00:30:31;;;;;;;103.00;54.47;;;;;;;-2.44;100.00;100695.16;2083212;28;20241;-73
2022/02/27 00:31:35;;;;;;;113.85;56.53;;;;;;;-2.42;100.00;100693.22;2082480;28;20651;-72
2022/02/27 00:32:40;;;;;;;103.82;55.25;;;;;;;-2.41;100.00;100689.63;2074419;28;20641;-72
2022/02/27 00:33:47;;;;;;;111.35;56.92;;;;;;;-2.39;100.00;100695.47;2082488;28;20222;-72
2022/02/27 00:34:51;;;;;;;115.78;58.92;;;;;;;-2.40;100.00;100696.47;2082451;28;20270;-72
2022/02/27 00:35:55;;;;;;;121.85;58.38;;;;;;;-2.42;100.00;100695.84;2081881;28;20203;-72
2022/02/27 00:36:56;;;;;;;98.72;54.30;;;;;;;-2.45;100.00;100692.72;2082820;28;20195;-72
2022/02/27 00:38:02;;;;;;;118.70;58.75;;;;;;;-2.47;100.00;100692.09;2090610;28;20203;-72
2022/02/27 00:39:06;;;;;;;126.80;58.22;;;;;;;-2.51;100.00;100682.97;2082444;28;20211;-72
2022/02/27 00:40:13;;;;;;;113.95;58.13;;;;;;;-2.51;100.00;100691.63;2082592;28;20188;-72
2022/02/27 00:41:17;;;;;;;113.07;56.58;;;;;;;-2.54;100.00;100681.50;2082386;28;20214;-72
2022/02/27 00:42:23;;;;;;;114.47;56.60;;;;;;;-2.57;100.00;100689.69;2082818;28;20291;-72
2022/02/27 00:43:29;;;;;;;109.75;55.33;;;;;;;-2.56;100.00;100688.69;2075115;28;20659;-72
2022/02/27 00:44:34;;;;;;;111.75;55.53;;;;;;;-2.60;100.00;100690.84;2082574;28;20196;-72
2022/02/27 00:45:41;;;;;;;113.72;57.88;;;;;;;-2.62;100.00;100692.78;2082660;28;20196;-72
2022/02/27 00:46:47;;;;;;;114.28;55.72;;;;;;;-2.62;100.00;100692.78;2082292;28;20573;-72
2022/02/27 00:47:57;;;;;;;102.45;53.70;;;;;;;-2.64;100.00;100688.72;2082437;28;20207;-72
2022/02/27 00:48:59;;;;;;;107.97;53.10;;;;;;;-2.64;100.00;100694.78;2082705;28;20206;-72
2022/02/27 00:50:05;;;;;;;119.15;57.72;;;;;;;-2.65;100.00;100693.16;2082599;28;20290;-72
2022/02/27 00:51:05;;;;;;;113.22;53.28;;;;;;;-2.68;100.00;100685.66;2082000;28;20225;-72
2022/02/27 00:52:11;;;;;;;111.70;56.67;;;;;;;-2.68;100.00;100684.84;2083241;28;20234;-72
2022/02/27 00:53:20;;;;;;;114.72;58.72;;;;;;;-2.71;100.00;100682.56;2082986;28;20214;-72
2022/02/27 00:54:22;;;;;;;116.28;56.80;;;;;;;-2.72;100.00;100688.75;2083204;28;20184;-72
2022/02/27 00:55:27;;;;;;;112.57;56.40;;;;;;;-2.74;100.00;100688.94;2083189;28;20195;-72
2022/02/27 00:56:30;;;;;;;116.30;56.58;;;;;;;-2.76;100.00;100684.88;2082247;28;20666;-72
2022/02/27 00:57:33;;;;;;;122.40;59.20;;;;;;;-2.78;100.00;100690.28;2082492;28;20678;-72
2022/02/27 00:58:36;;;;;;;112.85;56.47;;;;;;;-2.79;100.00;100690.41;2082227;28;20219;-72
2022/02/27 00:59:44;;;;;;;110.82;57.00;;;;;;;-2.81;100.00;100682.75;2082530;28;20200;-72
2022/02/27 01:00:48;;;;;;;108.78;55.33;;;;;;;-2.82;100.00;100688.97;2082666;28;20657;-72
2022/02/27 01:01:54;;;;;;;108.88;55.00;;;;;;;-2.85;100.00;100689.31;2082149;28;20199;-72
2022/02/27 01:03:01;;;;;;;103.97;52.72;;;;;;;-2.86;100.00;100685.06;2082567;28;20203;-72
2022/02/27 01:04:04;;;;;;;110.53;55.83;;;;;;;-2.86;100.00;100693.72;2074990;28;20212;-72
2022/02/27 01:05:09;;;;;;;117.97;57.50;;;;;;;-2.89;100.00;100691.44;2082553;28;20270;-72
2022/02/27 01:06:13;;;;;;;114.78;56.72;;;;;;;-2.92;100.00;100686.56;2082500;28;20329;-72
2022/02/27 01:07:20;;;;;;;124.68;55.88;;;;;;;-2.90;100.00;100691.59;2082692;28;20199;-72
2022/02/27 01:08:24;;;;;;;117.90;56.38;;;;;;;-2.92;100.00;100689.16;2082388;28;20687;-72
2022/02/27 01:09:28;;;;;;;119.70;57.90;;;;;;;-2.90;100.00;100694.22;2082490;28;20247;-72
2022/02/27 01:10:31;;;;;;;117.50;56.15;;;;;;;-2.91;100.00;100693.41;2082530;28;20218;-72
2022/02/27 01:11:35;;;;;;;111.38;54.97;;;;;;;-2.91;100.00;100700.41;2082915;28;20195;-72
2022/02/27 01:12:38;;;;;;;107.22;54.38;;;;;;;-2.91;100.00;100697.81;2082902;28;20676;-72
2022/02/27 01:13:44;;;;;;;107.93;52.88;;;;;;;-2.93;100.00;100699.78;2082920;28;20191;-72
2022/02/27 01:14:52;;;;;;;109.45;54.83;;;;;;;-2.93;100.00;100705.00;2083168;28;20180;-72
2022/02/27 01:15:59;;;;;;;120.57;59.40;;;;;;;-2.96;100.00;100695.69;2082880;28;20192;-72
2022/02/27 01:17:06;;;;;;;131.00;60.42;;;;;;;-2.93;100.00;100700.59;2082476;28;20199;-72
2022/02/27 01:18:09;;;;;;;121.28;57.58;;;;;;;-2.89;100.00;100699.25;2075026;28;20642;-72
2022/02/27 01:19:14;;;;;;;117.43;57.80;;;;;;;-2.90;100.00;100697.63;2082554;28;20745;-72
2022/02/27 01:20:17;;;;;;;128.85;61.05;;;;;;;-2.88;100.00;100702.69;2082539;28;20212;-72
2022/02/27 01:21:23;;;;;;;133.88;58.90;;;;;;;-2.88;100.00;100703.50;2081089;28;20227;-72
2022/02/27 01:22:25;;;;;;;128.48;59.33;;;;;;;-2.87;100.00;100699.09;2082355;28;20199;-72
2022/02/27 01:23:32;;;;;;;114.22;56.17;;;;;;;-2.84;100.00;100693.56;2074582;28;20219;-72
2022/02/27 01:24:34;;;;;;;114.20;57.33;;;;;;;-2.87;100.00;100699.09;2074747;28;20204;-72
2022/02/27 01:25:37;;;;;;;115.60;55.80;;;;;;;-2.91;100.00;100701.22;2082286;28;20315;-72
2022/02/27 01:26:41;;;;;;;110.97;54.00;;;;;;;-2.92;100.00;100697.00;2082788;28;20231;-72
2022/02/27 01:27:49;;;;;;;114.82;54.70;;;;;;;-2.94;100.00;100698.97;2082056;28;20230;-72
2022/02/27 01:28:55;;;;;;;116.30;59.35;;;;;;;-2.94;100.00;100700.75;2082033;28;20669;-72
2022/02/27 01:30:03;;;;;;;120.70;56.63;;;;;;;-2.97;100.00;100699.28;2075079;28;20307;-72
2022/02/27 01:31:07;;;;;;;111.80;55.90;;;;;;;-2.98;100.00;100696.84;2082189;28;20199;-72
2022/02/27 01:32:11;;;;;;;107.43;54.90;;;;;;;-3.03;100.00;100696.56;2082377;28;20697;-72
2022/02/27 01:33:14;;;;;;;105.60;53.95;;;;;;;-3.02;100.00;100699.00;2074343;28;20239;-72
2022/02/27 01:34:21;;;;;;;103.90;54.53;;;;;;;-3.05;100.00;100695.88;2082322;28;20220;-72
2022/02/27 01:35:23;;;;;;;101.22;54.53;;;;;;;-3.07;100.00;100695.25;2082368;28;20199;-72
2022/02/27 01:36:28;;;;;;;106.55;54.42;;;;;;;-3.08;100.00;100691.00;2081695;28;20293;-72
2022/02/27 01:37:33;;;;;;;105.13;54.45;;;;;;;-3.11;100.00;100699.19;2082116;28;20199;-72
2022/02/27 01:38:36;;;;;;;101.40;51.03;;;;;;;-3.13;100.00;100689.72;2089989;28;20711;-72
2022/02/27 01:39:37;;;;;;;108.35;52.63;;;;;;;-3.15;100.00;100696.88;2090304;28;20190;-71
2022/02/27 01:40:42;;;;;;;98.40;52.28;;;;;;;-3.16;100.00;100697.06;2090252;28;20221;-72
2022/02/27 01:41:50;;;;;;;111.25;52.85;;;;;;;-3.16;100.00;100699.66;2081974;28;20207;-71
2022/02/27 01:42:59;;;;;;;107.07;53.97;;;;;;;-3.18;100.00;100699.84;2082459;28;20172;-71
2022/02/27 01:44:01;;;;;;;110.60;54.92;;;;;;;-3.22;100.00;100689.88;2082641;28;20569;-71
2022/02/27 01:45:05;;;;;;;98.22;52.40;;;;;;;-3.21;100.00;100691.53;2090154;28;20661;-71
2022/02/27 01:46:09;;;;;;;102.53;52.05;;;;;;;-3.24;100.00;100690.03;2081952;28;20204;-71
2022/02/27 01:47:16;;;;;;;104.57;54.03;;;;;;;-3.25;100.00;100692.81;2082172;28;20630;-71
2022/02/27 01:48:20;;;;;;;104.68;54.08;;;;;;;-3.25;100.00;100691.03;2082855;28;20203;-71
2022/02/27 01:49:25;;;;;;;102.15;52.30;;;;;;;-3.25;100.00;100687.59;2081816;28;20215;-72
2022/02/27 01:50:30;;;;;;;104.03;51.72;;;;;;;-3.28;100.00;100695.78;2081984;28;20196;-72
2022/02/27 01:51:32;;;;;;;101.85;52.95;;;;;;;-3.27;100.00;100697.41;2081763;28;20223;-72
2022/02/27 01:52:35;;;;;;;110.63;54.00;;;;;;;-3.30;100.00;100695.09;2082163;28;20206;-72
2022/02/27 01:53:37;;;;;;;109.32;53.53;;;;;;;-3.32;100.00;100695.28;2081904;28;20286;-72
2022/02/27 01:54:42;;;;;;;108.97;55.10;;;;;;;-3.33;100.00;100690.22;2082083;28;20203;-72
2022/02/27 01:55:47;;;;;;;110.45;53.72;;;;;;;-3.33;100.00;100692.84;2082187;28;20211;-72
2022/02/27 01:56:52;;;;;;;108.53;54.95;;;;;;;-3.35;100.00;100681.75;2074411;28;20232;-72
2022/02/27 01:58:00;;;;;;;103.65;52.78;;;;;;;-3.34;100.00;100688.59;2074448;28;20196;-72
2022/02/27 01:59:01;;;;;;;109.43;55.70;;;;;;;-3.37;100.00;100688.94;2074732;28;20245;-72
2022/02/27 02:00:06;;;;;;;108.97;55.23;;;;;;;-3.38;100.00;100688.13;2073946;28;20205;-72
2022/02/27 02:01:16;;;;;;;119.15;56.67;;;;;;;-3.42;100.00;100692.03;2082052;28;20490;-72
2022/02/27 02:02:20;;;;;;;117.50;55.58;;;;;;;-3.42;100.00;100692.84;2082732;28;20218;-72
2022/02/27 02:03:27;;;;;;;111.32;54.92;;;;;;;-3.44;100.00;100694.00;2081885;28;20253;-72
2022/02/27 02:04:36;;;;;;;109.68;54.20;;;;;;;-3.43;100.00;100688.59;2073977;28;20184;-72
2022/02/27 02:05:39;;;;;;;126.35;57.70;;;;;;;-3.45;100.00;100682.75;2082170;28;20283;-72
2022/02/27 02:06:41;;;;;;;110.13;55.22;;;;;;;-3.46;100.00;100693.34;2081417;28;20216;-71
2022/02/27 02:07:47;;;;;;;104.63;54.00;;;;;;;-3.48;100.00;100690.88;2081809;28;20195;-71
2022/02/27 02:08:52;;;;;;;102.18;55.58;;;;;;;-3.47;100.00;100692.53;2074712;28;20572;-71
2022/02/27 02:09:59;;;;;;;111.40;55.78;;;;;;;-3.48;100.00;100692.69;2074341;28;20188;-71
2022/02/27 02:11:05;;;;;;;108.97;54.40;;;;;;;-3.48;100.00;100698.72;2074515;28;20219;-72
2022/02/27 02:12:11;;;;;;;117.07;55.38;;;;;;;-3.47;100.00;100700.38;2082035;28;20257;-71
2022/02/27 02:13:16;;;;;;;117.90;56.92;;;;;;;-3.47;100.00;100694.34;2082627;28;20179;-71
2022/02/27 02:14:24;;;;;;;118.90;61.25;;;;;;;-3.48;100.00;100695.28;2081749;28;20290;-71
2022/02/27 02:15:31;;;;;;;112.88;58.22;;;;;;;-3.48;100.00;100695.28;2082114;28;20235;-71
2022/02/27 02:16:44;;;;;;;122.57;58.78;;;;;;;-3.49;100.00;100699.69;2074256;28;20212;-72
2022/02/27 02:17:55;;;;;;;118.50;57.35;;;;;;;-3.50;100.00;100698.06;2075537;28;20215;-72
2022/02/27 02:18:59;;;;;;;116.30;55.20;;;;;;;-3.48;100.00;100698.72;2081725;28;20223;-72
2022/02/27 02:20:02;;;;;;;121.22;59.95;;;;;;;-3.47;100.00;100697.75;2081669;28;20207;-72
2022/02/27 02:21:04;;;;;;;129.82;60.17;;;;;;;-3.48;100.00;100703.13;2081256;28;20203;-72
2022/02/27 02:22:09;;;;;;;118.20;57.92;;;;;;;-3.48;100.00;100696.09;2082008;28;20214;-72
2022/02/27 02:23:17;;;;;;;119.07;57.80;;;;;;;-3.50;100.00;100705.91;2081760;28;20196;-72
2022/02/27 02:24:26;;;;;;;121.22;58.55;;;;;;;-3.49;100.00;100707.53;2082340;28;20267;-72
2022/02/27 02:25:33;;;;;;;128.50;59.60;;;;;;;-3.49;100.00;100704.91;2082138;28;20199;-72
2022/02/27 02:26:37;;;;;;;117.40;58.05;;;;;;;-3.51;100.00;100706.88;2081758;28;20566;-72
2022/02/27 02:27:40;;;;;;;111.82;56.83;;;;;;;-3.51;100.00;100706.88;2081779;28;20246;-72
2022/02/27 02:28:46;;;;;;;122.97;58.95;;;;;;;-3.51;100.00;100708.66;2081676;28;20199;-72
2022/02/27 02:29:55;;;;;;;117.97;57.63;;;;;;;-3.53;100.00;100702.81;2074479;28;20203;-72
2022/02/27 02:31:02;;;;;;;115.95;57.72;;;;;;;-3.56;100.00;100698.75;2081441;28;20204;-71
2022/02/27 02:32:07;;;;;;;115.40;57.03;;;;;;;-3.57;100.00;100701.50;2081670;28;20643;-72
2022/02/27 02:33:15;;;;;;;113.50;56.70;;;;;;;-3.56;100.00;100706.56;2081703;28;20239;-72
2022/02/27 02:34:19;;;;;;;112.20;53.90;;;;;;;-3.58;100.00;100705.91;2073774;28;20675;-72
2022/02/27 02:35:25;;;;;;;112.70;55.92;;;;;;;-3.58;100.00;100700.69;2073733;28;20279;-72
2022/02/27 02:36:33;;;;;;;119.80;55.78;;;;;;;-3.59;100.00;100699.06;2081394;28;20282;-72
2022/02/27 02:37:39;;;;;;;105.45;53.90;;;;;;;-3.58;100.00;100707.69;2081562;28;20222;-72
2022/02/27 02:38:46;;;;;;;101.60;51.53;;;;;;;-3.58;100.00;100700.69;2073593;28;20215;-72
2022/02/27 02:39:53;;;;;;;114.78;54.88;;;;;;;-3.58;100.00;100705.91;2074454;28;20701;-72
2022/02/27 02:40:56;;;;;;;102.28;51.25;;;;;;;-3.53;100.00;100703.63;2074321;28;20238;-72
2022/02/27 02:41:59;;;;;;;104.13;51.58;;;;;;;-3.51;100.00;100711.28;2081679;28;20199;-72
2022/02/27 02:43:13;;;;;;;111.47;53.97;;;;;;;-3.49;100.00;100709.31;2081589;28;20658;-72
2022/02/27 02:44:19;;;;;;;98.13;50.60;;;;;;;-3.46;100.00;100709.81;2081942;28;20580;-72
2022/02/27 02:45:25;;;;;;;102.55;51.90;;;;;;;-3.44;100.00;100707.03;2081752;28;20171;-72
2022/02/27 02:46:29;;;;;;;102.00;51.17;;;;;;;-3.42;100.00;100708.50;2081618;28;20249;-72
2022/02/27 02:47:32;;;;;;;96.90;49.65;;;;;;;-3.39;100.00;100707.34;2081937;28;20274;-72
2022/02/27 02:48:35;;;;;;;102.70;50.55;;;;;;;-3.34;100.00;100712.91;2073636;28;20208;-72
2022/02/27 02:49:59;;;;;;;105.07;51.13;;;;;;;-3.29;100.00;100704.59;2075888;28;20585;-72
2022/02/27 02:51:07;;;;;;;96.47;49.75;;;;;;;-3.24;100.00;100712.72;2081058;28;20234;-72
2022/02/27 02:52:10;;;;;;;98.22;50.35;;;;;;;-3.18;100.00;100710.28;2081639;28;20184;-72
2022/02/27 02:53:18;;;;;;;95.18;49.63;;;;;;;-3.10;100.00;100709.44;2081374;28;20206;-72
2022/02/27 02:54:19;;;;;;;91.95;48.58;;;;;;;-3.03;100.00;100710.41;2074183;28;20562;-72
2022/02/27 02:55:22;;;;;;;98.55;49.50;;;;;;;-2.97;100.00;100714.94;2081492;28;20207;-72
2022/02/27 02:56:23;;;;;;;93.47;48.50;;;;;;;-2.89;100.00;100719.34;2082183;28;20246;-72
2022/02/27 02:57:27;;;;;;;99.78;50.05;;;;;;;-2.83;100.00;100716.06;2081473;28;20705;-72
2022/02/27 02:58:32;;;;;;;106.32;52.75;;;;;;;-2.77;100.00;100715.41;2081488;28;20537;-72
2022/02/27 02:59:40;;;;;;;100.57;50.15;;;;;;;-2.72;100.00;100717.50;2082090;28;20713;-72
2022/02/27 03:00:42;;;;;;;103.38;52.10;;;;;;;-2.69;100.00;100717.19;2081829;28;20287;-72
2022/02/27 03:01:45;;;;;;;96.82;48.60;;;;;;;-2.63;100.00;100717.28;2081486;28;20239;-72
2022/02/27 03:02:46;;;;;;;104.07;51.38;;;;;;;-2.58;100.00;100720.22;2082165;28;20192;-72
2022/02/27 03:03:49;;;;;;;90.18;49.20;;;;;;;-2.55;100.00;100719.06;2082151;28;20188;-72
2022/02/27 03:04:57;;;;;;;105.30;52.00;;;;;;;-2.50;100.00;100715.97;2082114;28;20199;-72
2022/02/27 03:06:00;;;;;;;96.28;49.67;;;;;;;-2.46;100.00;100717.22;2081131;28;20199;-72
2022/02/27 03:07:06;;;;;;;102.18;51.58;;;;;;;-2.40;100.00;100722.59;2082124;28;20254;-72
2022/02/27 03:08:09;;;;;;;108.75;51.63;;;;;;;-2.36;100.00;100726.50;2089336;28;20191;-72
2022/02/27 03:09:12;;;;;;;90.25;47.00;;;;;;;-2.27;100.00;100722.03;2082109;28;20191;-72
2022/02/27 03:10:14;;;;;;;93.15;48.05;;;;;;;-2.20;100.00;100719.56;2082148;28;20563;-72
2022/02/27 03:11:21;;;;;;;100.47;50.03;;;;;;;-2.16;100.00;100718.25;2082073;28;20621;-71
2022/02/27 03:12:25;;;;;;;97.47;49.55;;;;;;;-2.10;100.00;100722.75;2082112;28;20196;-72
2022/02/27 03:13:33;;;;;;;85.82;46.22;;;;;;;-2.08;100.00;100720.81;2081403;28;20716;-72
2022/02/27 03:14:38;;;;;;;96.53;48.05;;;;;;;-2.04;100.00;100728.13;2074320;28;20220;-72
2022/02/27 03:15:41;;;;;;;100.78;49.38;;;;;;;-1.98;100.00;100731.88;2080806;28;20257;-72
2022/02/27 03:16:42;;;;;;;97.38;48.38;;;;;;;-1.93;100.00;100731.31;2081352;28;20224;-72
2022/02/27 03:17:44;;;;;;;98.75;49.55;;;;;;;-1.93;100.00;100724.28;2081534;28;20188;-72
2022/02/27 03:18:46;;;;;;;87.05;47.03;;;;;;;-1.88;100.00;100731.63;2082122;28;20219;-72
2022/02/27 03:19:57;;;;;;;78.55;46.55;;;;;;;-1.86;100.00;100729.66;2082139;28;20286;-72
2022/02/27 03:21:03;;;;;;;99.72;49.60;;;;;;;-1.82;100.00;100734.38;2081652;28;20237;-72
2022/02/27 03:22:11;;;;;;;84.80;46.05;;;;;;;-1.81;100.00;100735.19;2082072;28;20199;-72
2022/02/27 03:23:13;;;;;;;93.55;47.40;;;;;;;-1.84;100.00;100731.09;2082188;28;20200;-72
2022/02/27 03:24:15;;;;;;;94.10;47.67;;;;;;;-1.82;100.00;100726.53;2082074;28;20673;-72
2022/02/27 03:25:16;;;;;;;90.45;46.22;;;;;;;-1.83;100.00;100732.72;2082167;28;20245;-72
2022/02/27 03:26:22;;;;;;;82.43;45.80;;;;;;;-1.82;100.00;100734.38;2081988;28;20584;-72
2022/02/27 03:27:25;;;;;;;86.97;46.22;;;;;;;-1.82;100.00;100726.53;2082083;28;20274;-72
2022/02/27 03:28:31;;;;;;;79.47;44.38;;;;;;;-1.83;100.00;100734.53;2082040;28;20222;-72
2022/02/27 03:29:36;;;;;;;83.60;44.00;;;;;;;-1.79;100.00;100741.06;2081986;28;20721;-72
2022/02/27 03:30:42;;;;;;;83.28;44.92;;;;;;;-1.79;100.00;100726.16;2081906;28;20290;-72
2022/02/27 03:31:46;;;;;;;80.05;42.80;;;;;;;-1.76;100.00;100732.84;2081682;28;20206;-72
2022/02/27 03:32:53;;;;;;;81.13;43.75;;;;;;;-1.77;100.00;100729.41;2081198;28;20255;-72
2022/02/27 03:33:59;;;;;;;80.43;43.63;;;;;;;-1.76;100.00;100733.66;2081918;28;20219;-72
2022/02/27 03:35:02;;;;;;;79.22;44.38;;;;;;;-1.74;100.00;100726.47;2081258;28;20590;-72
2022/02/27 03:36:06;;;;;;;82.03;44.15;;;;;;;-1.74;100.00;100734.31;2080859;28;20195;-72
2022/02/27 03:37:11;;;;;;;80.78;41.80;;;;;;;-1.73;100.00;100727.28;2089506;28;20203;-72
2022/02/27 03:38:12;;;;;;;84.20;41.03;;;;;;;-1.75;100.00;100730.06;2089417;28;20595;-72
2022/02/27 03:39:18;;;;;;;74.13;42.43;;;;;;;-1.74;100.00;100733.47;2081231;28;20243;-72
2022/02/27 03:40:24;;;;;;;73.05;42.53;;;;;;;-1.74;100.00;100734.31;2081539;28;20184;-72
2022/02/27 03:41:31;;;;;;;83.35;43.00;;;;;;;-1.76;100.00;100740.69;2081957;28;20257;-72
2022/02/27 03:42:38;;;;;;;77.60;42.50;;;;;;;-1.79;100.00;100736.63;2081968;28;20611;-72
2022/02/27 03:43:41;;;;;;;78.95;42.53;;;;;;;-1.78;100.00;100740.88;2089483;28;20206;-72
2022/02/27 03:44:44;;;;;;;69.88;41.15;;;;;;;-1.80;100.00;100728.97;2081321;28;20226;-72
2022/02/27 03:45:48;;;;;;;63.72;40.75;;;;;;;-1.79;100.00;100736.63;2073522;28;20288;-72
2022/02/27 03:46:53;;;;;;;77.72;42.80;;;;;;;-1.79;100.00;100739.25;2081532;28;20206;-72
2022/02/27 03:48:01;;;;;;;72.60;42.60;;;;;;;-1.80;100.00;100740.25;2089045;28;20680;-72
2022/02/27 03:49:04;;;;;;;72.93;42.00;;;;;;;-1.78;100.00;100747.91;2081963;28;20708;-71
2022/02/27 03:50:11;;;;;;;75.97;40.67;;;;;;;-1.80;100.00;100748.09;2081648;28;20302;-72
2022/02/27 03:51:13;;;;;;;72.63;40.90;;;;;;;-1.80;100.00;100750.72;2080862;28;20242;-71
2022/02/27 03:52:18;;;;;;;74.27;40.17;;;;;;;-1.82;100.00;100744.84;2081350;28;20187;-72
2022/02/27 03:53:22;;;;;;;76.55;39.65;;;;;;;-1.82;100.00;100752.69;2081385;28;20487;-72
2022/02/27 03:54:28;;;;;;;74.47;42.28;;;;;;;-1.83;100.00;100747.59;2081149;28;20704;-72
2022/02/27 03:55:38;;;;;;;78.00;40.25;;;;;;;-1.84;100.00;100743.38;2081163;28;20221;-72
2022/02/27 03:56:43;;;;;;;69.95;40.47;;;;;;;-1.86;100.00;100751.38;2081647;28;20199;-72
2022/02/27 03:57:45;;;;;;;78.78;42.75;;;;;;;-1.88;100.00;100753.38;2081987;28;20173;-72
2022/02/27 03:58:48;;;;;;;74.07;40.13;;;;;;;-1.90;100.00;100750.13;2081959;28;20669;-72
2022/02/27 03:59:53;;;;;;;81.38;42.00;;;;;;;-1.93;100.00;100744.41;2081839;28;20689;-72
2022/02/27 04:00:59;;;;;;;71.28;39.60;;;;;;;-1.93;100.00;100749.63;2082393;28;20257;-72
2022/02/27 04:02:02;;;;;;;65.78;40.00;;;;;;;-1.96;100.00;100745.56;2082990;28;20200;-72
2022/02/27 04:03:08;;;;;;;72.03;40.88;;;;;;;-1.97;100.00;100754.41;2075387;28;20201;-72
2022/02/27 04:04:13;;;;;;;73.53;39.97;;;;;;;-2.01;100.00;100742.66;2083097;28;20286;-72
2022/02/27 04:05:19;;;;;;;66.78;40.38;;;;;;;-2.00;100.00;100749.50;2082068;28;20203;-72
2022/02/27 04:06:20;;;;;;;69.38;39.90;;;;;;;-2.03;100.00;100748.06;2074076;28;20224;-72
2022/02/27 04:07:26;;;;;;;68.60;38.77;;;;;;;-2.02;100.00;100751.47;2082865;28;20191;-72
2022/02/27 04:08:34;;;;;;;71.22;39.35;;;;;;;-2.03;100.00;100752.47;2083337;28;20215;-72
2022/02/27 04:09:39;;;;;;;78.55;40.70;;;;;;;-1.99;100.00;100756.38;2083383;28;20187;-72
2022/02/27 04:10:43;;;;;;;72.18;39.60;;;;;;;-2.00;100.00;100749.50;2083088;28;20195;-72
2022/02/27 04:11:44;;;;;;;61.85;38.88;;;;;;;-1.97;100.00;100749.19;2082818;28;20200;-72
2022/02/27 04:12:51;;;;;;;65.70;38.97;;;;;;;-1.96;100.00;100750.81;2083431;28;20732;-72
2022/02/27 04:13:53;;;;;;;67.45;38.22;;;;;;;-1.95;100.00;100752.44;2083359;28;20214;-72
2022/02/27 04:15:00;;;;;;;75.72;38.45;;;;;;;-1.94;100.00;100756.66;2083316;28;20194;-72
2022/02/27 04:16:03;;;;;;;70.50;40.58;;;;;;;-1.96;100.00;100750.00;2082335;28;20204;-72
2022/02/27 04:17:09;;;;;;;66.60;39.78;;;;;;;-1.94;100.00;100748.81;2075060;28;20294;-72
2022/02/27 04:18:16;;;;;;;68.38;38.50;;;;;;;-1.91;100.00;100751.13;2082923;28;20219;-72
2022/02/27 04:19:21;;;;;;;70.85;41.55;;;;;;;-1.91;100.00;100748.50;2083267;28;20724;-72
2022/02/27 04:20:23;;;;;;;74.60;41.08;;;;;;;-1.92;100.00;100744.22;2083342;28;20192;-72
2022/02/27 04:21:26;;;;;;;64.10;38.67;;;;;;;-1.91;100.00;100745.88;2083002;28;20223;-72
2022/02/27 04:22:31;;;;;;;71.75;40.45;;;;;;;-1.90;100.00;100746.69;2083278;28;20226;-72
2022/02/27 04:23:35;;;;;;;69.72;40.53;;;;;;;-1.90;100.00;100744.88;2083385;28;20279;-72
2022/02/27 04:24:39;;;;;;;72.10;41.05;;;;;;;-1.92;100.00;100744.22;2083533;28;20211;-72
2022/02/27 04:25:49;;;;;;;78.53;41.92;;;;;;;-1.92;100.00;100746.84;2083203;28;20195;-72
2022/02/27 04:26:52;;;;;;;73.88;41.55;;;;;;;-1.95;100.00;100741.97;2083206;28;20283;-72
2022/02/27 04:27:56;;;;;;;70.20;41.28;;;;;;;-1.94;100.00;100746.22;2082533;28;20199;-72
2022/02/27 04:28:57;;;;;;;73.63;40.10;;;;;;;-1.95;100.00;100749.81;2082644;28;20218;-72
2022/02/27 04:30:02;;;;;;;73.22;40.83;;;;;;;-1.95;100.00;100749.81;2083346;28;20214;-72
2022/02/27 04:31:06;;;;;;;64.63;39.42;;;;;;;-1.93;100.00;100744.41;2082589;28;20200;-72
2022/02/27 04:32:16;;;;;;;64.32;38.85;;;;;;;-1.92;100.00;100739.00;2083156;28;20286;-72
2022/02/27 04:33:19;;;;;;;60.95;38.72;;;;;;;-1.90;100.00;100744.88;2089908;28;20231;-72
2022/02/27 04:34:20;;;;;;;70.22;41.10;;;;;;;-1.88;100.00;100740.28;2074298;28;20247;-72
2022/02/27 04:35:23;;;;;;;76.00;42.20;;;;;;;-1.84;100.00;100744.19;2074457;28;20188;-72
2022/02/27 04:36:28;;;;;;;72.97;41.05;;;;;;;-1.82;100.00;100741.41;2082876;28;20220;-72
2022/02/27 04:37:37;;;;;;;70.40;41.92;;;;;;;-1.81;100.00;100743.03;2083308;28;20253;-72
2022/02/27 04:38:41;;;;;;;68.68;39.53;;;;;;;-1.77;100.00;100750.34;2083000;28;20309;-72
2022/02/27 04:39:46;;;;;;;68.63;39.65;;;;;;;-1.76;100.00;100744.13;2082374;28;20269;-72
2022/02/27 04:40:49;;;;;;;67.75;39.72;;;;;;;-1.77;100.00;100742.50;2074578;28;20208;-72
2022/02/27 04:41:51;;;;;;;72.50;41.25;;;;;;;-1.77;100.00;100745.13;2074881;28;20204;-72
2022/02/27 04:42:53;;;;;;;74.13;41.30;;;;;;;-1.76;100.00;100741.50;2082591;28;20211;-72
2022/02/27 04:44:00;;;;;;;71.10;41.05;;;;;;;-1.75;100.00;100752.78;2083642;28;20216;-72
2022/02/27 04:45:04;;;;;;;74.47;40.42;;;;;;;-1.74;100.00;100749.19;2082870;28;20196;-72
2022/02/27 04:46:07;;;;;;;70.15;39.05;;;;;;;-1.73;100.00;100756.88;2074978;28;20302;-72
2022/02/27 04:47:12;;;;;;;72.65;40.65;;;;;;;-1.74;100.00;100749.19;2082483;28;20196;-72
2022/02/27 04:48:14;;;;;;;68.03;40.80;;;;;;;-1.73;100.00;100754.25;2082954;28;20195;-72
2022/02/27 04:49:17;;;;;;;69.45;40.50;;;;;;;-1.68;100.00;100758.16;2083344;28;20194;-72